Weather at Children's Hospital Minneapolis Heliport

Public forecast

Using degrees Fahrenheit for public forecast. Weather courtesy of forecast.io.

Closest aviation weather report (METAR) to Children's Hospital Minneapolis Heliport

Closest report is Minneapolis–Saint Paul International Airport / Wold–Chamberlain Field, 4.8 nm (8.9 km) SSE. Retrieved 2021/07/28 00:53 UTC (60 minutes ago):

KMSP 280053Z 00000KT 10SM SCT060 BKN075 BKN250 33/23 A2994 RMK AO2 SLP131 TCU DSNT N-SE T03280233

Closest aviation forecast (TAF) to Children's Hospital Minneapolis Heliport

Closest forecast is Minneapolis–Saint Paul International Airport / Wold–Chamberlain Field, 4.8 nm (8.9 km) SSE. Retrieved 2021-07-28 00:36 UTC (1 hour ago):

TAF KMSP 272333Z 2800/2906 VRB04KT P6SM FEW035 FEW250 FM280200 10005KT P6SM FEW250 PROB30 2813/2815 3SM -TSRA BKN050CB FM281600 20012G20KT P6SM SCT150